sensor_id;sensor_type;location;lat;lon;timestamp;P1;durP1;ratioP1;P2;durP2;ratioP2
61840;SDS011;47773;53.174;6.614;2023-07-29T00:01:43;25.30;;;11.32;;
61840;SDS011;47773;53.174;6.614;2023-07-29T00:04:09;22.23;;;10.63;;
61840;SDS011;47773;53.174;6.614;2023-07-29T00:06:35;23.27;;;10.98;;
61840;SDS011;47773;53.174;6.614;2023-07-29T00:09:01;16.92;;;10.35;;
61840;SDS011;47773;53.174;6.614;2023-07-29T00:11:28;26.80;;;12.38;;
61840;SDS011;47773;53.174;6.614;2023-07-29T00:13:54;23.52;;;11.75;;
61840;SDS011;47773;53.174;6.614;2023-07-29T00:16:19;27.45;;;12.88;;
61840;SDS011;47773;53.174;6.614;2023-07-29T00:18:48;21.75;;;12.00;;
61840;SDS011;47773;53.174;6.614;2023-07-29T00:21:14;28.13;;;11.93;;
61840;SDS011;47773;53.174;6.614;2023-07-29T00:23:40;27.35;;;12.68;;
61840;SDS011;47773;53.174;6.614;2023-07-29T00:26:06;25.35;;;11.48;;
61840;SDS011;47773;53.174;6.614;2023-07-29T00:28:31;22.08;;;12.88;;
61840;SDS011;47773;53.174;6.614;2023-07-29T00:30:57;26.65;;;12.48;;
61840;SDS011;47773;53.174;6.614;2023-07-29T00:33:23;19.58;;;11.70;;
61840;SDS011;47773;53.174;6.614;2023-07-29T00:35:48;26.73;;;12.55;;
61840;SDS011;47773;53.174;6.614;2023-07-29T00:38:14;20.90;;;11.50;;
61840;SDS011;47773;53.174;6.614;2023-07-29T00:40:40;30.27;;;12.30;;
61840;SDS011;47773;53.174;6.614;2023-07-29T00:43:06;22.85;;;12.00;;
61840;SDS011;47773;53.174;6.614;2023-07-29T00:45:32;24.17;;;12.00;;
61840;SDS011;47773;53.174;6.614;2023-07-29T00:47:58;23.02;;;12.10;;
61840;SDS011;47773;53.174;6.614;2023-07-29T00:50:24;21.55;;;11.10;;
61840;SDS011;47773;53.174;6.614;2023-07-29T00:52:52;26.30;;;12.65;;
61840;SDS011;47773;53.174;6.614;2023-07-29T00:55:19;25.42;;;12.18;;
61840;SDS011;47773;53.174;6.614;2023-07-29T00:57:45;22.73;;;11.60;;
61840;SDS011;47773;53.174;6.614;2023-07-29T01:00:13;18.52;;;11.27;;
61840;SDS011;47773;53.174;6.614;2023-07-29T01:02:41;24.77;;;12.30;;
61840;SDS011;47773;53.174;6.614;2023-07-29T01:05:11;24.45;;;12.95;;
61840;SDS011;47773;53.174;6.614;2023-07-29T01:07:42;25.20;;;13.00;;
61840;SDS011;47773;53.174;6.614;2023-07-29T01:12:56;26.33;;;13.43;;
61840;SDS011;47773;53.174;6.614;2023-07-29T01:15:40;23.10;;;12.17;;
61840;SDS011;47773;53.174;6.614;2023-07-29T01:18:23;22.58;;;12.15;;
61840;SDS011;47773;53.174;6.614;2023-07-29T01:20:58;27.20;;;12.32;;
61840;SDS011;47773;53.174;6.614;2023-07-29T01:23:25;24.15;;;13.02;;
61840;SDS011;47773;53.174;6.614;2023-07-29T01:25:54;25.23;;;12.38;;
61840;SDS011;47773;53.174;6.614;2023-07-29T01:28:21;23.13;;;12.25;;
61840;SDS011;47773;53.174;6.614;2023-07-29T01:30:47;28.42;;;13.13;;
61840;SDS011;47773;53.174;6.614;2023-07-29T01:33:20;25.50;;;13.05;;
61840;SDS011;47773;53.174;6.614;2023-07-29T01:35:52;30.13;;;13.98;;
61840;SDS011;47773;53.174;6.614;2023-07-29T01:38:32;23.07;;;11.63;;
61840;SDS011;47773;53.174;6.614;2023-07-29T01:41:03;27.20;;;12.88;;
61840;SDS011;47773;53.174;6.614;2023-07-29T01:43:32;23.33;;;13.20;;
61840;SDS011;47773;53.174;6.614;2023-07-29T01:45:59;23.27;;;12.80;;
61840;SDS011;47773;53.174;6.614;2023-07-29T01:48:26;24.20;;;13.38;;
61840;SDS011;47773;53.174;6.614;2023-07-29T01:50:53;24.35;;;13.85;;
61840;SDS011;47773;53.174;6.614;2023-07-29T01:53:19;27.83;;;13.15;;
61840;SDS011;47773;53.174;6.614;2023-07-29T01:55:45;24.65;;;12.63;;
61840;SDS011;47773;53.174;6.614;2023-07-29T01:58:11;26.60;;;13.77;;
61840;SDS011;47773;53.174;6.614;2023-07-29T02:00:36;26.23;;;11.90;;
61840;SDS011;47773;53.174;6.614;2023-07-29T02:03:02;33.17;;;13.82;;
61840;SDS011;47773;53.174;6.614;2023-07-29T02:05:28;22.35;;;13.45;;
61840;SDS011;47773;53.174;6.614;2023-07-29T02:07:54;31.48;;;14.23;;
61840;SDS011;47773;53.174;6.614;2023-07-29T02:10:19;30.15;;;13.85;;
61840;SDS011;47773;53.174;6.614;2023-07-29T02:12:45;23.08;;;13.27;;
61840;SDS011;47773;53.174;6.614;2023-07-29T02:15:11;27.95;;;14.07;;
61840;SDS011;47773;53.174;6.614;2023-07-29T02:17:36;27.55;;;13.43;;
61840;SDS011;47773;53.174;6.614;2023-07-29T02:20:03;25.95;;;13.35;;
61840;SDS011;47773;53.174;6.614;2023-07-29T02:22:29;26.05;;;13.77;;
61840;SDS011;47773;53.174;6.614;2023-07-29T02:24:54;35.08;;;14.40;;
61840;SDS011;47773;53.174;6.614;2023-07-29T02:27:20;25.33;;;13.23;;
61840;SDS011;47773;53.174;6.614;2023-07-29T02:29:46;27.67;;;13.55;;
61840;SDS011;47773;53.174;6.614;2023-07-29T02:32:12;26.00;;;14.38;;
61840;SDS011;47773;53.174;6.614;2023-07-29T02:34:37;29.15;;;13.32;;
61840;SDS011;47773;53.174;6.614;2023-07-29T02:37:03;28.73;;;13.63;;
61840;SDS011;47773;53.174;6.614;2023-07-29T02:39:29;26.75;;;12.07;;
61840;SDS011;47773;53.174;6.614;2023-07-29T02:41:55;25.38;;;13.68;;
61840;SDS011;47773;53.174;6.614;2023-07-29T02:44:23;26.38;;;12.63;;
61840;SDS011;47773;53.174;6.614;2023-07-29T02:46:49;25.83;;;13.20;;
61840;SDS011;47773;53.174;6.614;2023-07-29T02:49:17;32.97;;;12.82;;
61840;SDS011;47773;53.174;6.614;2023-07-29T02:51:42;26.08;;;13.50;;
61840;SDS011;47773;53.174;6.614;2023-07-29T02:54:08;26.83;;;12.18;;
61840;SDS011;47773;53.174;6.614;2023-07-29T02:56:34;25.02;;;12.95;;
61840;SDS011;47773;53.174;6.614;2023-07-29T02:59:00;23.63;;;12.45;;
61840;SDS011;47773;53.174;6.614;2023-07-29T03:01:26;22.30;;;12.73;;
61840;SDS011;47773;53.174;6.614;2023-07-29T03:03:52;25.00;;;12.40;;
61840;SDS011;47773;53.174;6.614;2023-07-29T03:06:18;31.38;;;12.23;;
61840;SDS011;47773;53.174;6.614;2023-07-29T03:08:44;36.38;;;12.45;;
61840;SDS011;47773;53.174;6.614;2023-07-29T03:11:14;25.30;;;11.05;;
61840;SDS011;47773;53.174;6.614;2023-07-29T03:13:40;30.40;;;12.50;;
61840;SDS011;47773;53.174;6.614;2023-07-29T03:16:10;22.83;;;11.73;;
61840;SDS011;47773;53.174;6.614;2023-07-29T03:18:38;21.75;;;11.77;;
61840;SDS011;47773;53.174;6.614;2023-07-29T03:21:04;25.52;;;11.65;;
61840;SDS011;47773;53.174;6.614;2023-07-29T03:23:30;26.38;;;11.38;;
61840;SDS011;47773;53.174;6.614;2023-07-29T03:25:58;22.15;;;10.93;;
61840;SDS011;47773;53.174;6.614;2023-07-29T03:28:32;28.45;;;12.70;;
61840;SDS011;47773;53.174;6.614;2023-07-29T03:30:58;22.25;;;11.40;;
61840;SDS011;47773;53.174;6.614;2023-07-29T03:33:24;20.63;;;11.40;;
61840;SDS011;47773;53.174;6.614;2023-07-29T03:35:51;29.50;;;12.10;;
61840;SDS011;47773;53.174;6.614;2023-07-29T03:38:17;20.30;;;10.40;;
61840;SDS011;47773;53.174;6.614;2023-07-29T03:40:43;19.35;;;11.18;;
61840;SDS011;47773;53.174;6.614;2023-07-29T03:43:09;24.05;;;11.30;;
61840;SDS011;47773;53.174;6.614;2023-07-29T03:45:35;25.27;;;10.68;;
61840;SDS011;47773;53.174;6.614;2023-07-29T03:48:02;24.48;;;10.90;;
61840;SDS011;47773;53.174;6.614;2023-07-29T03:50:28;22.48;;;11.48;;
61840;SDS011;47773;53.174;6.614;2023-07-29T03:52:54;21.67;;;10.65;;
61840;SDS011;47773;53.174;6.614;2023-07-29T03:55:20;20.85;;;10.05;;
61840;SDS011;47773;53.174;6.614;2023-07-29T03:57:46;23.13;;;10.25;;
61840;SDS011;47773;53.174;6.614;2023-07-29T04:00:12;22.70;;;10.52;;
61840;SDS011;47773;53.174;6.614;2023-07-29T04:02:38;21.63;;;10.90;;
61840;SDS011;47773;53.174;6.614;2023-07-29T04:05:04;24.95;;;9.50;;
61840;SDS011;47773;53.174;6.614;2023-07-29T04:07:33;27.58;;;10.20;;
61840;SDS011;47773;53.174;6.614;2023-07-29T04:09:59;23.73;;;10.32;;
61840;SDS011;47773;53.174;6.614;2023-07-29T04:12:26;18.80;;;9.57;;
61840;SDS011;47773;53.174;6.614;2023-07-29T04:14:51;24.75;;;9.88;;
61840;SDS011;47773;53.174;6.614;2023-07-29T04:17:17;23.83;;;8.77;;
61840;SDS011;47773;53.174;6.614;2023-07-29T04:19:43;17.83;;;9.07;;
61840;SDS011;47773;53.174;6.614;2023-07-29T04:22:09;24.40;;;9.43;;
61840;SDS011;47773;53.174;6.614;2023-07-29T04:24:34;18.25;;;9.23;;
61840;SDS011;47773;53.174;6.614;2023-07-29T04:27:00;20.25;;;9.40;;
61840;SDS011;47773;53.174;6.614;2023-07-29T04:29:26;24.92;;;9.30;;
61840;SDS011;47773;53.174;6.614;2023-07-29T04:31:52;19.02;;;8.90;;
61840;SDS011;47773;53.174;6.614;2023-07-29T04:34:18;21.13;;;9.52;;
61840;SDS011;47773;53.174;6.614;2023-07-29T04:36:44;21.52;;;8.70;;
61840;SDS011;47773;53.174;6.614;2023-07-29T04:39:11;22.17;;;9.43;;
61840;SDS011;47773;53.174;6.614;2023-07-29T04:41:36;24.83;;;9.00;;
61840;SDS011;47773;53.174;6.614;2023-07-29T04:44:02;20.45;;;8.82;;
61840;SDS011;47773;53.174;6.614;2023-07-29T04:46:28;21.45;;;8.55;;
61840;SDS011;47773;53.174;6.614;2023-07-29T04:48:54;19.13;;;7.63;;
61840;SDS011;47773;53.174;6.614;2023-07-29T04:51:20;18.55;;;8.60;;
61840;SDS011;47773;53.174;6.614;2023-07-29T04:53:46;18.58;;;7.40;;
61840;SDS011;47773;53.174;6.614;2023-07-29T04:56:11;20.13;;;7.65;;
61840;SDS011;47773;53.174;6.614;2023-07-29T04:58:37;20.05;;;7.70;;
61840;SDS011;47773;53.174;6.614;2023-07-29T05:01:03;15.18;;;6.95;;
61840;SDS011;47773;53.174;6.614;2023-07-29T05:03:29;19.33;;;7.40;;
61840;SDS011;47773;53.174;6.614;2023-07-29T05:05:56;19.92;;;7.40;;
61840;SDS011;47773;53.174;6.614;2023-07-29T05:08:23;20.27;;;6.70;;
61840;SDS011;47773;53.174;6.614;2023-07-29T05:10:49;18.13;;;7.60;;
61840;SDS011;47773;53.174;6.614;2023-07-29T05:13:16;19.98;;;6.95;;
61840;SDS011;47773;53.174;6.614;2023-07-29T05:15:42;18.00;;;6.68;;
61840;SDS011;47773;53.174;6.614;2023-07-29T05:18:08;21.05;;;6.03;;
61840;SDS011;47773;53.174;6.614;2023-07-29T05:20:33;13.60;;;5.78;;
61840;SDS011;47773;53.174;6.614;2023-07-29T05:22:59;13.35;;;5.22;;
61840;SDS011;47773;53.174;6.614;2023-07-29T05:25:25;17.45;;;5.50;;
61840;SDS011;47773;53.174;6.614;2023-07-29T05:27:51;16.25;;;5.60;;
61840;SDS011;47773;53.174;6.614;2023-07-29T05:30:17;13.57;;;5.47;;
61840;SDS011;47773;53.174;6.614;2023-07-29T05:32:43;16.58;;;5.22;;
61840;SDS011;47773;53.174;6.614;2023-07-29T05:35:09;17.02;;;5.38;;
61840;SDS011;47773;53.174;6.614;2023-07-29T05:37:37;13.38;;;4.78;;
61840;SDS011;47773;53.174;6.614;2023-07-29T05:40:04;15.65;;;5.60;;
61840;SDS011;47773;53.174;6.614;2023-07-29T05:42:31;20.40;;;5.00;;
61840;SDS011;47773;53.174;6.614;2023-07-29T05:44:56;16.20;;;5.55;;
61840;SDS011;47773;53.174;6.614;2023-07-29T05:47:22;19.05;;;5.70;;
61840;SDS011;47773;53.174;6.614;2023-07-29T05:49:48;18.38;;;5.72;;
61840;SDS011;47773;53.174;6.614;2023-07-29T05:52:13;15.27;;;4.60;;
61840;SDS011;47773;53.174;6.614;2023-07-29T05:54:40;13.60;;;5.22;;
61840;SDS011;47773;53.174;6.614;2023-07-29T05:57:07;13.50;;;5.45;;
61840;SDS011;47773;53.174;6.614;2023-07-29T05:59:37;13.48;;;5.00;;
61840;SDS011;47773;53.174;6.614;2023-07-29T06:02:03;16.67;;;5.00;;
61840;SDS011;47773;53.174;6.614;2023-07-29T06:04:29;12.00;;;4.95;;
61840;SDS011;47773;53.174;6.614;2023-07-29T06:06:54;23.45;;;4.70;;
61840;SDS011;47773;53.174;6.614;2023-07-29T06:09:21;14.00;;;4.50;;
61840;SDS011;47773;53.174;6.614;2023-07-29T06:11:47;14.95;;;4.70;;
61840;SDS011;47773;53.174;6.614;2023-07-29T06:14:13;17.23;;;4.80;;
61840;SDS011;47773;53.174;6.614;2023-07-29T06:16:39;11.38;;;4.40;;
61840;SDS011;47773;53.174;6.614;2023-07-29T06:19:05;14.18;;;4.22;;
61840;SDS011;47773;53.174;6.614;2023-07-29T06:21:30;17.75;;;4.93;;
61840;SDS011;47773;53.174;6.614;2023-07-29T06:23:56;15.80;;;4.60;;
61840;SDS011;47773;53.174;6.614;2023-07-29T06:26:22;10.93;;;3.90;;
61840;SDS011;47773;53.174;6.614;2023-07-29T06:28:47;14.25;;;4.55;;
61840;SDS011;47773;53.174;6.614;2023-07-29T06:31:13;14.13;;;4.93;;
61840;SDS011;47773;53.174;6.614;2023-07-29T06:33:39;12.20;;;3.97;;
61840;SDS011;47773;53.174;6.614;2023-07-29T06:36:05;18.17;;;4.15;;
61840;SDS011;47773;53.174;6.614;2023-07-29T06:38:31;14.13;;;4.28;;
61840;SDS011;47773;53.174;6.614;2023-07-29T06:40:57;16.33;;;4.25;;
61840;SDS011;47773;53.174;6.614;2023-07-29T06:43:22;13.63;;;3.75;;
61840;SDS011;47773;53.174;6.614;2023-07-29T06:45:48;20.60;;;5.15;;
61840;SDS011;47773;53.174;6.614;2023-07-29T06:48:14;13.60;;;4.45;;
61840;SDS011;47773;53.174;6.614;2023-07-29T06:50:39;13.27;;;3.90;;
61840;SDS011;47773;53.174;6.614;2023-07-29T06:53:05;21.80;;;4.50;;
61840;SDS011;47773;53.174;6.614;2023-07-29T06:55:31;20.67;;;4.90;;
61840;SDS011;47773;53.174;6.614;2023-07-29T06:57:57;19.38;;;4.75;;
61840;SDS011;47773;53.174;6.614;2023-07-29T07:00:23;22.70;;;5.15;;
61840;SDS011;47773;53.174;6.614;2023-07-29T07:02:48;14.05;;;4.45;;
61840;SDS011;47773;53.174;6.614;2023-07-29T07:05:14;23.10;;;5.13;;
61840;SDS011;47773;53.174;6.614;2023-07-29T07:07:40;21.17;;;5.13;;
61840;SDS011;47773;53.174;6.614;2023-07-29T07:10:06;20.13;;;4.75;;
61840;SDS011;47773;53.174;6.614;2023-07-29T07:12:32;20.13;;;5.90;;
61840;SDS011;47773;53.174;6.614;2023-07-29T07:14:57;30.58;;;5.03;;
61840;SDS011;47773;53.174;6.614;2023-07-29T07:17:23;16.25;;;5.05;;
61840;SDS011;47773;53.174;6.614;2023-07-29T07:19:49;21.83;;;6.93;;
61840;SDS011;47773;53.174;6.614;2023-07-29T07:22:16;19.05;;;5.38;;
61840;SDS011;47773;53.174;6.614;2023-07-29T07:24:41;26.13;;;7.07;;
61840;SDS011;47773;53.174;6.614;2023-07-29T07:27:07;18.77;;;6.35;;
61840;SDS011;47773;53.174;6.614;2023-07-29T07:29:33;21.80;;;7.78;;
61840;SDS011;47773;53.174;6.614;2023-07-29T07:31:58;16.08;;;6.57;;
61840;SDS011;47773;53.174;6.614;2023-07-29T07:34:24;22.40;;;6.88;;
61840;SDS011;47773;53.174;6.614;2023-07-29T07:36:50;21.30;;;7.30;;
61840;SDS011;47773;53.174;6.614;2023-07-29T07:39:16;25.42;;;6.57;;
61840;SDS011;47773;53.174;6.614;2023-07-29T07:41:42;22.95;;;7.20;;
61840;SDS011;47773;53.174;6.614;2023-07-29T07:44:08;21.25;;;6.68;;
61840;SDS011;47773;53.174;6.614;2023-07-29T07:46:34;18.38;;;8.20;;
61840;SDS011;47773;53.174;6.614;2023-07-29T07:49:00;21.48;;;7.80;;
61840;SDS011;47773;53.174;6.614;2023-07-29T07:51:25;21.10;;;8.25;;
61840;SDS011;47773;53.174;6.614;2023-07-29T07:53:51;25.17;;;7.65;;
61840;SDS011;47773;53.174;6.614;2023-07-29T07:56:17;23.88;;;8.13;;
61840;SDS011;47773;53.174;6.614;2023-07-29T07:58:42;26.73;;;7.43;;
61840;SDS011;47773;53.174;6.614;2023-07-29T08:01:08;21.00;;;8.10;;
61840;SDS011;47773;53.174;6.614;2023-07-29T08:03:35;24.30;;;7.88;;
61840;SDS011;47773;53.174;6.614;2023-07-29T08:06:01;18.83;;;7.65;;
61840;SDS011;47773;53.174;6.614;2023-07-29T08:08:27;23.25;;;8.60;;
61840;SDS011;47773;53.174;6.614;2023-07-29T08:10:53;23.42;;;6.95;;
61840;SDS011;47773;53.174;6.614;2023-07-29T08:13:20;19.27;;;7.15;;
61840;SDS011;47773;53.174;6.614;2023-07-29T08:15:49;26.05;;;7.43;;
61840;SDS011;47773;53.174;6.614;2023-07-29T08:18:16;21.45;;;7.70;;
61840;SDS011;47773;53.174;6.614;2023-07-29T08:20:54;21.58;;;7.10;;
61840;SDS011;47773;53.174;6.614;2023-07-29T08:23:23;21.05;;;7.82;;
61840;SDS011;47773;53.174;6.614;2023-07-29T08:25:53;24.83;;;7.43;;
61840;SDS011;47773;53.174;6.614;2023-07-29T08:28:24;19.17;;;5.88;;
61840;SDS011;47773;53.174;6.614;2023-07-29T08:30:49;20.42;;;6.45;;
61840;SDS011;47773;53.174;6.614;2023-07-29T08:33:15;15.20;;;5.93;;
61840;SDS011;47773;53.174;6.614;2023-07-29T08:35:41;16.52;;;6.00;;
61840;SDS011;47773;53.174;6.614;2023-07-29T08:38:07;21.40;;;6.47;;
61840;SDS011;47773;53.174;6.614;2023-07-29T08:40:33;26.35;;;5.88;;
61840;SDS011;47773;53.174;6.614;2023-07-29T08:43:02;18.73;;;5.70;;
61840;SDS011;47773;53.174;6.614;2023-07-29T08:45:31;17.10;;;5.22;;
61840;SDS011;47773;53.174;6.614;2023-07-29T08:48:00;18.20;;;5.85;;
61840;SDS011;47773;53.174;6.614;2023-07-29T08:50:30;14.45;;;4.68;;
61840;SDS011;47773;53.174;6.614;2023-07-29T08:52:58;13.75;;;5.28;;
61840;SDS011;47773;53.174;6.614;2023-07-29T08:55:26;15.93;;;5.75;;
61840;SDS011;47773;53.174;6.614;2023-07-29T08:57:51;21.20;;;5.60;;
61840;SDS011;47773;53.174;6.614;2023-07-29T09:00:18;16.88;;;5.55;;
61840;SDS011;47773;53.174;6.614;2023-07-29T09:02:45;13.25;;;5.20;;
61840;SDS011;47773;53.174;6.614;2023-07-29T09:05:10;19.10;;;5.35;;
61840;SDS011;47773;53.174;6.614;2023-07-29T09:07:36;13.98;;;4.93;;
61840;SDS011;47773;53.174;6.614;2023-07-29T09:10:03;13.73;;;4.63;;
61840;SDS011;47773;53.174;6.614;2023-07-29T09:12:29;13.43;;;4.80;;
61840;SDS011;47773;53.174;6.614;2023-07-29T09:14:55;12.35;;;4.25;;
61840;SDS011;47773;53.174;6.614;2023-07-29T09:17:21;13.75;;;4.25;;
61840;SDS011;47773;53.174;6.614;2023-07-29T09:19:50;14.23;;;4.13;;
61840;SDS011;47773;53.174;6.614;2023-07-29T09:22:19;14.35;;;4.45;;
61840;SDS011;47773;53.174;6.614;2023-07-29T09:24:46;11.23;;;4.07;;
61840;SDS011;47773;53.174;6.614;2023-07-29T09:27:23;20.58;;;4.90;;
61840;SDS011;47773;53.174;6.614;2023-07-29T09:29:52;14.60;;;4.35;;
61840;SDS011;47773;53.174;6.614;2023-07-29T09:32:19;13.18;;;4.40;;
61840;SDS011;47773;53.174;6.614;2023-07-29T09:34:46;18.60;;;4.40;;
61840;SDS011;47773;53.174;6.614;2023-07-29T09:37:16;10.55;;;4.00;;
61840;SDS011;47773;53.174;6.614;2023-07-29T09:39:46;12.35;;;3.50;;
61840;SDS011;47773;53.174;6.614;2023-07-29T09:42:17;10.93;;;3.00;;
61840;SDS011;47773;53.174;6.614;2023-07-29T09:44:44;16.80;;;3.92;;
61840;SDS011;47773;53.174;6.614;2023-07-29T09:47:09;11.52;;;3.08;;
61840;SDS011;47773;53.174;6.614;2023-07-29T09:49:50;14.00;;;3.40;;
61840;SDS011;47773;53.174;6.614;2023-07-29T09:52:17;10.20;;;3.00;;
61840;SDS011;47773;53.174;6.614;2023-07-29T09:54:48;11.07;;;3.35;;
61840;SDS011;47773;53.174;6.614;2023-07-29T09:57:14;14.55;;;3.70;;
61840;SDS011;47773;53.174;6.614;2023-07-29T09:59:41;6.57;;;3.17;;
61840;SDS011;47773;53.174;6.614;2023-07-29T10:02:09;11.80;;;3.45;;
61840;SDS011;47773;53.174;6.614;2023-07-29T10:04:41;11.15;;;2.92;;
61840;SDS011;47773;53.174;6.614;2023-07-29T10:07:08;9.18;;;2.97;;
61840;SDS011;47773;53.174;6.614;2023-07-29T10:09:35;9.20;;;3.47;;
61840;SDS011;47773;53.174;6.614;2023-07-29T10:12:03;9.23;;;3.25;;
61840;SDS011;47773;53.174;6.614;2023-07-29T10:14:34;9.27;;;3.38;;
61840;SDS011;47773;53.174;6.614;2023-07-29T10:17:01;9.30;;;3.30;;
61840;SDS011;47773;53.174;6.614;2023-07-29T10:19:28;10.27;;;3.00;;
61840;SDS011;47773;53.174;6.614;2023-07-29T10:21:56;10.07;;;2.85;;
61840;SDS011;47773;53.174;6.614;2023-07-29T10:24:32;17.33;;;3.13;;
61840;SDS011;47773;53.174;6.614;2023-07-29T10:26:59;9.00;;;3.42;;
61840;SDS011;47773;53.174;6.614;2023-07-29T10:29:28;8.20;;;2.60;;
61840;SDS011;47773;53.174;6.614;2023-07-29T10:32:02;14.27;;;3.28;;
61840;SDS011;47773;53.174;6.614;2023-07-29T10:34:29;11.55;;;3.35;;
61840;SDS011;47773;53.174;6.614;2023-07-29T10:37:00;13.50;;;3.25;;
61840;SDS011;47773;53.174;6.614;2023-07-29T10:39:26;12.63;;;2.90;;
61840;SDS011;47773;53.174;6.614;2023-07-29T10:41:59;15.30;;;2.90;;
61840;SDS011;47773;53.174;6.614;2023-07-29T10:47:18;6.38;;;2.65;;
61840;SDS011;47773;53.174;6.614;2023-07-29T10:49:56;11.50;;;2.75;;
61840;SDS011;47773;53.174;6.614;2023-07-29T10:55:00;10.18;;;3.00;;
61840;SDS011;47773;53.174;6.614;2023-07-29T10:57:35;7.63;;;3.50;;
61840;SDS011;47773;53.174;6.614;2023-07-29T11:00:03;10.73;;;2.95;;
61840;SDS011;47773;53.174;6.614;2023-07-29T11:02:31;9.25;;;3.35;;
61840;SDS011;47773;53.174;6.614;2023-07-29T11:04:59;12.02;;;3.50;;
61840;SDS011;47773;53.174;6.614;2023-07-29T11:07:47;11.65;;;3.00;;
61840;SDS011;47773;53.174;6.614;2023-07-29T11:10:14;12.77;;;3.55;;
61840;SDS011;47773;53.174;6.614;2023-07-29T11:12:50;9.18;;;3.28;;
61840;SDS011;47773;53.174;6.614;2023-07-29T11:15:18;7.90;;;2.58;;
61840;SDS011;47773;53.174;6.614;2023-07-29T11:18:09;8.40;;;2.70;;
61840;SDS011;47773;53.174;6.614;2023-07-29T11:20:34;12.38;;;2.60;;
61840;SDS011;47773;53.174;6.614;2023-07-29T11:23:01;8.38;;;2.72;;
61840;SDS011;47773;53.174;6.614;2023-07-29T11:25:29;6.55;;;2.70;;
61840;SDS011;47773;53.174;6.614;2023-07-29T11:27:56;7.65;;;2.90;;
61840;SDS011;47773;53.174;6.614;2023-07-29T11:30:24;7.30;;;3.28;;
61840;SDS011;47773;53.174;6.614;2023-07-29T11:32:52;9.60;;;2.80;;
61840;SDS011;47773;53.174;6.614;2023-07-29T11:35:18;11.60;;;2.55;;
61840;SDS011;47773;53.174;6.614;2023-07-29T11:37:45;12.38;;;2.92;;
61840;SDS011;47773;53.174;6.614;2023-07-29T11:40:16;11.07;;;3.03;;
61840;SDS011;47773;53.174;6.614;2023-07-29T11:42:42;13.32;;;3.28;;
61840;SDS011;47773;53.174;6.614;2023-07-29T11:45:08;11.77;;;3.05;;
61840;SDS011;47773;53.174;6.614;2023-07-29T11:47:35;13.05;;;3.03;;
61840;SDS011;47773;53.174;6.614;2023-07-29T11:50:02;11.13;;;3.92;;
61840;SDS011;47773;53.174;6.614;2023-07-29T11:52:34;8.65;;;3.55;;
61840;SDS011;47773;53.174;6.614;2023-07-29T11:55:01;8.90;;;3.83;;
61840;SDS011;47773;53.174;6.614;2023-07-29T11:57:28;13.45;;;3.90;;
61840;SDS011;47773;53.174;6.614;2023-07-29T11:59:55;12.38;;;4.05;;
61840;SDS011;47773;53.174;6.614;2023-07-29T12:02:20;11.25;;;3.53;;
61840;SDS011;47773;53.174;6.614;2023-07-29T12:04:48;10.98;;;3.53;;
61840;SDS011;47773;53.174;6.614;2023-07-29T12:07:16;13.68;;;3.60;;
61840;SDS011;47773;53.174;6.614;2023-07-29T12:09:42;14.57;;;4.05;;
61840;SDS011;47773;53.174;6.614;2023-07-29T12:12:08;13.07;;;3.88;;
61840;SDS011;47773;53.174;6.614;2023-07-29T12:14:34;11.52;;;3.85;;
61840;SDS011;47773;53.174;6.614;2023-07-29T12:17:01;10.82;;;3.88;;
61840;SDS011;47773;53.174;6.614;2023-07-29T12:19:32;10.77;;;3.88;;
61840;SDS011;47773;53.174;6.614;2023-07-29T12:22:02;11.55;;;3.90;;
61840;SDS011;47773;53.174;6.614;2023-07-29T12:24:30;15.00;;;3.85;;
61840;SDS011;47773;53.174;6.614;2023-07-29T12:26:57;10.40;;;3.63;;
61840;SDS011;47773;53.174;6.614;2023-07-29T12:29:23;15.55;;;3.92;;
61840;SDS011;47773;53.174;6.614;2023-07-29T12:31:49;11.13;;;3.70;;
61840;SDS011;47773;53.174;6.614;2023-07-29T12:34:22;17.00;;;4.13;;
61840;SDS011;47773;53.174;6.614;2023-07-29T12:36:50;16.13;;;3.95;;
61840;SDS011;47773;53.174;6.614;2023-07-29T12:39:26;13.18;;;3.92;;
61840;SDS011;47773;53.174;6.614;2023-07-29T12:41:53;13.65;;;4.25;;
61840;SDS011;47773;53.174;6.614;2023-07-29T12:44:20;11.25;;;3.95;;
61840;SDS011;47773;53.174;6.614;2023-07-29T12:46:47;14.30;;;4.38;;
61840;SDS011;47773;53.174;6.614;2023-07-29T12:49:13;10.13;;;3.95;;
61840;SDS011;47773;53.174;6.614;2023-07-29T12:51:38;15.13;;;4.45;;
61840;SDS011;47773;53.174;6.614;2023-07-29T12:54:04;13.90;;;3.97;;
61840;SDS011;47773;53.174;6.614;2023-07-29T12:56:30;13.20;;;3.92;;
61840;SDS011;47773;53.174;6.614;2023-07-29T12:58:57;11.73;;;3.70;;
61840;SDS011;47773;53.174;6.614;2023-07-29T13:01:26;14.90;;;3.90;;
61840;SDS011;47773;53.174;6.614;2023-07-29T13:03:53;12.35;;;3.42;;
61840;SDS011;47773;53.174;6.614;2023-07-29T13:06:19;12.07;;;3.53;;
61840;SDS011;47773;53.174;6.614;2023-07-29T13:08:46;9.25;;;3.10;;
61840;SDS011;47773;53.174;6.614;2023-07-29T13:11:12;10.65;;;2.85;;
61840;SDS011;47773;53.174;6.614;2023-07-29T13:13:39;10.88;;;2.92;;
61840;SDS011;47773;53.174;6.614;2023-07-29T13:16:05;11.35;;;3.40;;
61840;SDS011;47773;53.174;6.614;2023-07-29T13:18:31;11.88;;;3.10;;
61840;SDS011;47773;53.174;6.614;2023-07-29T13:20:57;19.20;;;3.80;;
61840;SDS011;47773;53.174;6.614;2023-07-29T13:23:25;9.70;;;3.10;;
61840;SDS011;47773;53.174;6.614;2023-07-29T13:25:51;12.90;;;3.65;;
61840;SDS011;47773;53.174;6.614;2023-07-29T13:28:16;11.32;;;3.33;;
61840;SDS011;47773;53.174;6.614;2023-07-29T13:30:42;12.48;;;3.38;;
61840;SDS011;47773;53.174;6.614;2023-07-29T13:33:08;10.32;;;3.05;;
61840;SDS011;47773;53.174;6.614;2023-07-29T13:35:34;10.82;;;3.75;;
61840;SDS011;47773;53.174;6.614;2023-07-29T13:38:00;15.05;;;3.90;;
61840;SDS011;47773;53.174;6.614;2023-07-29T13:40:26;13.77;;;4.13;;
61840;SDS011;47773;53.174;6.614;2023-07-29T13:42:52;18.42;;;4.00;;
61840;SDS011;47773;53.174;6.614;2023-07-29T13:45:18;10.50;;;3.65;;
61840;SDS011;47773;53.174;6.614;2023-07-29T13:47:44;13.38;;;3.80;;
61840;SDS011;47773;53.174;6.614;2023-07-29T13:50:10;12.75;;;3.72;;
61840;SDS011;47773;53.174;6.614;2023-07-29T13:52:37;10.00;;;3.75;;
61840;SDS011;47773;53.174;6.614;2023-07-29T13:55:03;15.05;;;4.35;;
61840;SDS011;47773;53.174;6.614;2023-07-29T13:57:29;16.88;;;3.95;;
61840;SDS011;47773;53.174;6.614;2023-07-29T13:59:55;18.15;;;4.43;;
61840;SDS011;47773;53.174;6.614;2023-07-29T14:02:21;17.63;;;4.20;;
61840;SDS011;47773;53.174;6.614;2023-07-29T14:04:47;12.45;;;4.22;;
61840;SDS011;47773;53.174;6.614;2023-07-29T14:07:12;14.13;;;4.13;;
61840;SDS011;47773;53.174;6.614;2023-07-29T14:09:38;13.45;;;4.05;;
61840;SDS011;47773;53.174;6.614;2023-07-29T14:12:04;17.17;;;4.07;;
61840;SDS011;47773;53.174;6.614;2023-07-29T14:14:30;19.08;;;4.10;;
61840;SDS011;47773;53.174;6.614;2023-07-29T14:16:56;10.73;;;3.80;;
61840;SDS011;47773;53.174;6.614;2023-07-29T14:19:22;11.82;;;4.40;;
61840;SDS011;47773;53.174;6.614;2023-07-29T14:21:48;12.20;;;3.80;;
61840;SDS011;47773;53.174;6.614;2023-07-29T14:24:14;12.82;;;4.10;;
61840;SDS011;47773;53.174;6.614;2023-07-29T14:26:40;24.15;;;4.55;;
61840;SDS011;47773;53.174;6.614;2023-07-29T14:29:06;11.27;;;3.78;;
61840;SDS011;47773;53.174;6.614;2023-07-29T14:31:32;14.73;;;3.78;;
61840;SDS011;47773;53.174;6.614;2023-07-29T14:33:58;13.75;;;4.20;;
61840;SDS011;47773;53.174;6.614;2023-07-29T14:36:24;11.85;;;4.43;;
61840;SDS011;47773;53.174;6.614;2023-07-29T14:38:50;13.00;;;4.20;;